Roscrea, Ireland
Current Conditions -  °F | °C
As of 3:00 PM on Monday 22 Dec 2014 (Local Time) from EINN Reporting Station
Light Rain Light Rain  
Wind Chill: 52°   Ceiling: 1200
Heat Index: 52°   Visibility: 1.8mi
Dew Point: 52°   Wind: 28mph
Humidity: 100%   Direction: 230°SW
Pressure: 29.88"   Gusts: NA
Location:  52.96°N, 7.81°W
Report Text: EINN 221400Z 23024KT 3000 -RADZ FEW007 BKN012 BKN016 11/11 Q1012 TEMPO BKN008
Loading
Personal Weather Stations






























Interactive Weather Map New forecast layout! Learn more

10-Day Weather Forecast

Advertisements
Track Severe Weather on mobile